createdAt,value
2023-01-20T00:01:23.544Z,49.58
2023-01-20T00:03:52.951Z,45.40
2023-01-20T00:06:22.139Z,50.75
2023-01-20T00:08:52.470Z,47.67
2023-01-20T00:11:23.104Z,53.63
2023-01-20T00:13:55.994Z,46.33
2023-01-20T00:16:25.096Z,48.30
2023-01-20T00:18:53.666Z,49.97
2023-01-20T00:21:22.628Z,57.05
2023-01-20T00:23:51.141Z,49.90
2023-01-20T00:26:22.519Z,57.63
2023-01-20T00:28:51.421Z,52.40
2023-01-20T00:31:21.620Z,61.45
2023-01-20T00:33:51.829Z,56.20
2023-01-20T00:36:21.334Z,61.63
2023-01-20T00:38:49.685Z,60.58
2023-01-20T00:41:19.050Z,59.22
2023-01-20T00:43:48.819Z,63.15
2023-01-20T00:46:17.298Z,62.88
2023-01-20T00:48:45.589Z,68.07
2023-01-20T00:51:13.716Z,79.18
2023-01-20T00:53:42.392Z,70.80
2023-01-20T00:56:10.588Z,70.78
2023-01-20T00:58:38.933Z,72.10
2023-01-20T01:01:08.514Z,72.20
2023-01-20T01:03:36.876Z,69.78
2023-01-20T01:06:10.475Z,70.47
2023-01-20T01:08:39.008Z,70.53
2023-01-20T01:11:07.672Z,61.83
2023-01-20T01:13:37.369Z,61.97
2023-01-20T01:16:06.179Z,65.50
2023-01-20T01:18:35.796Z,68.85
2023-01-20T01:21:08.277Z,69.22
2023-01-20T01:23:36.906Z,67.30
2023-01-20T01:26:05.472Z,70.75
2023-01-20T01:28:33.845Z,77.63
2023-01-20T01:31:02.947Z,67.53
2023-01-20T01:33:31.847Z,64.03
2023-01-20T01:36:03.338Z,57.65
2023-01-20T01:38:31.663Z,57.90
2023-01-20T01:41:00.094Z,56.22
2023-01-20T01:43:29.903Z,55.28
2023-01-20T01:45:58.978Z,54.53
2023-01-20T01:48:34.037Z,53.65
2023-01-20T01:51:07.013Z,56.80
2023-01-20T01:53:40.961Z,60.25
2023-01-20T01:56:11.209Z,50.75
2023-01-20T01:58:43.153Z,52.17
2023-01-20T02:01:12.317Z,47.38
2023-01-20T02:03:49.501Z,51.03
2023-01-20T02:06:21.023Z,51.05
2023-01-20T02:08:49.824Z,46.65
2023-01-20T02:11:18.131Z,51.58
2023-01-20T02:13:46.399Z,52.10
2023-01-20T02:16:19.680Z,47.17
2023-01-20T02:19:05.147Z,50.83
2023-01-20T02:22:02.373Z,44.28
2023-01-20T02:25:06.363Z,49.80
2023-01-20T02:28:07.332Z,47.95
2023-01-20T02:30:51.991Z,50.10
2023-01-20T02:33:29.753Z,50.70
2023-01-20T02:36:01.919Z,45.28
2023-01-20T02:38:41.986Z,52.05
2023-01-20T02:41:18.023Z,52.60
2023-01-20T02:43:51.894Z,47.58
2023-01-20T02:46:26.492Z,42.75
2023-01-20T02:49:02.583Z,41.05
2023-01-20T02:51:34.454Z,42.20
2023-01-20T02:54:06.768Z,46.70
2023-01-20T02:56:36.683Z,48.28
2023-01-20T02:59:09.967Z,44.33
2023-01-20T03:01:43.892Z,42.58
2023-01-20T03:04:18.048Z,41.70
2023-01-20T03:09:20.693Z,44.40
2023-01-20T03:11:54.005Z,39.35
2023-01-20T03:14:22.471Z,39.47
2023-01-20T03:16:50.836Z,43.22
2023-01-20T03:19:21.312Z,42.47
2023-01-20T03:21:50.200Z,42.60
2023-01-20T03:24:18.488Z,43.38
2023-01-20T03:26:46.876Z,38.83
2023-01-20T03:29:16.005Z,42.28
2023-01-20T03:31:48.345Z,42.13
2023-01-20T03:34:19.227Z,38.20
2023-01-20T03:36:49.437Z,36.22
2023-01-20T03:39:18.339Z,38.38
2023-01-20T03:41:56.866Z,37.47
2023-01-20T03:44:45.833Z,37.03
2023-01-20T03:47:21.413Z,41.17
2023-01-20T03:49:57.407Z,38.78
2023-01-20T03:52:47.617Z,42.97
2023-01-20T03:55:21.104Z,36.00
2023-01-20T03:57:55.584Z,36.05
2023-01-20T04:00:26.255Z,37.03
2023-01-20T04:03:00.288Z,38.15
2023-01-20T04:05:29.156Z,37.92
2023-01-20T04:08:03.521Z,37.03
2023-01-20T04:10:33.800Z,36.65
2023-01-20T04:13:02.224Z,33.78
2023-01-20T04:15:35.465Z,36.95
2023-01-20T04:18:17.602Z,38.40
2023-01-20T04:20:47.884Z,35.72
2023-01-20T04:23:22.206Z,28.80
2023-01-20T04:25:50.666Z,33.22
2023-01-20T04:28:18.853Z,32.13
2023-01-20T04:30:47.272Z,31.65
2023-01-20T04:33:15.423Z,31.50
2023-01-20T04:35:43.909Z,30.45
2023-01-20T04:38:11.991Z,30.05
2023-01-20T04:40:41.808Z,29.63
2023-01-20T04:43:10.049Z,30.35
2023-01-20T04:45:39.600Z,30.67
2023-01-20T04:48:08.540Z,32.22
2023-01-20T04:50:40.142Z,30.25
2023-01-20T04:53:09.891Z,27.02
2023-01-20T04:55:38.224Z,30.67
2023-01-20T04:58:07.651Z,30.63
2023-01-20T05:00:36.004Z,24.60
2023-01-20T05:03:06.116Z,31.02
2023-01-20T05:05:34.596Z,30.33
2023-01-20T05:08:04.672Z,24.58
2023-01-20T05:10:33.593Z,28.83
2023-01-20T05:13:02.197Z,30.67
2023-01-20T05:15:32.102Z,28.02
2023-01-20T05:18:00.264Z,30.88
2023-01-20T05:20:28.620Z,27.52
2023-01-20T05:22:56.807Z,26.95
2023-01-20T05:25:25.389Z,27.75
2023-01-20T05:27:53.428Z,27.00
2023-01-20T05:30:21.913Z,30.02
2023-01-20T05:32:52.247Z,29.95
2023-01-20T05:35:20.596Z,29.42
2023-01-20T05:37:49.113Z,28.52
2023-01-20T05:40:17.544Z,30.50
2023-01-20T05:42:45.953Z,29.33
2023-01-20T05:45:14.479Z,31.23
2023-01-20T05:47:43.062Z,27.83
2023-01-20T05:50:13.457Z,32.08
2023-01-20T05:52:41.862Z,27.67
2023-01-20T05:55:10.811Z,28.17
2023-01-20T05:57:39.180Z,29.35
2023-01-20T06:00:08.888Z,28.25
2023-01-20T06:02:37.396Z,29.67
2023-01-20T06:05:06.354Z,29.60
2023-01-20T06:07:36.113Z,26.08
2023-01-20T06:10:04.552Z,30.83
2023-01-20T06:12:32.958Z,28.70
2023-01-20T06:15:01.114Z,27.45
2023-01-20T06:17:29.601Z,29.02
2023-01-20T06:19:57.895Z,29.98
2023-01-20T06:22:26.307Z,27.88
2023-01-20T06:24:55.756Z,31.63
2023-01-20T06:27:24.112Z,27.85
2023-01-20T06:29:52.207Z,31.83
2023-01-20T06:32:20.648Z,28.13
2023-01-20T06:34:48.867Z,28.50
2023-01-20T06:37:17.759Z,29.70
2023-01-20T06:39:45.918Z,28.27
2023-01-20T06:42:15.686Z,30.63
2023-01-20T06:44:43.922Z,26.35
2023-01-20T06:47:12.337Z,28.85
2023-01-20T06:49:40.470Z,30.35
2023-01-20T06:52:09.835Z,27.40
2023-01-20T06:54:37.946Z,32.72
2023-01-20T06:57:06.332Z,29.13
2023-01-20T06:59:35.809Z,29.30
2023-01-20T07:02:04.132Z,30.52
2023-01-20T07:04:32.616Z,28.65
2023-01-20T07:07:01.632Z,28.15
2023-01-20T07:09:29.989Z,32.28
2023-01-20T07:11:58.285Z,32.83
2023-01-20T07:14:26.740Z,30.45
2023-01-20T07:16:56.286Z,28.55
2023-01-20T07:19:24.655Z,29.30
2023-01-20T07:21:52.800Z,29.35
2023-01-20T07:24:21.151Z,27.25
2023-01-20T07:26:49.274Z,28.65
2023-01-20T07:29:18.042Z,28.15
2023-01-20T07:31:46.903Z,27.95
2023-01-20T07:34:16.707Z,30.55
2023-01-20T07:36:44.955Z,28.23
2023-01-20T07:39:20.006Z,30.08
2023-01-20T07:41:49.860Z,30.23
2023-01-20T07:44:18.357Z,28.75
2023-01-20T07:46:46.864Z,27.38
2023-01-20T07:49:16.311Z,30.38
2023-01-20T07:51:44.741Z,33.28
2023-01-20T07:54:13.158Z,28.10
2023-01-20T07:56:41.678Z,28.33
2023-01-20T07:59:11.961Z,31.23
2023-01-20T08:01:40.455Z,31.45
2023-01-20T08:04:08.789Z,27.98
2023-01-20T08:06:38.306Z,28.02
2023-01-20T08:09:09.770Z,28.60
2023-01-20T08:11:37.889Z,26.30
2023-01-20T08:14:06.457Z,28.33
2023-01-20T08:16:34.915Z,29.10
2023-01-20T08:19:03.334Z,27.42
2023-01-20T08:21:33.224Z,28.83
2023-01-20T08:24:05.637Z,27.00
2023-01-20T08:26:34.994Z,28.27
2023-01-20T08:29:04.703Z,24.50
2023-01-20T08:31:32.900Z,25.35
2023-01-20T08:34:01.459Z,28.30
2023-01-20T08:36:31.606Z,25.38
2023-01-20T08:39:03.319Z,23.67
2023-01-20T08:41:33.678Z,22.55
2023-01-20T08:44:05.611Z,28.33
2023-01-20T08:46:34.365Z,23.27
2023-01-20T08:49:02.939Z,24.50
2023-01-20T08:51:33.224Z,24.45
2023-01-20T08:54:03.738Z,28.30
2023-01-20T08:56:32.012Z,24.17
2023-01-20T08:59:00.745Z,23.60
2023-01-20T09:01:30.925Z,24.48
2023-01-20T09:04:05.802Z,23.85
2023-01-20T09:06:39.915Z,22.10
2023-01-20T09:09:09.787Z,24.17
2023-01-20T09:11:38.143Z,23.25
2023-01-20T09:14:06.579Z,22.50
2023-01-20T09:16:34.728Z,23.50
2023-01-20T09:19:03.334Z,24.58
2023-01-20T09:21:32.245Z,24.70
2023-01-20T09:24:00.908Z,23.45
2023-01-20T09:26:38.291Z,22.52
2023-01-20T09:29:10.337Z,24.10
2023-01-20T09:31:39.434Z,24.52
2023-01-20T09:34:08.042Z,26.50
2023-01-20T09:36:36.285Z,23.92
2023-01-20T09:39:21.702Z,25.42
2023-01-20T09:42:14.480Z,26.90
2023-01-20T09:44:49.012Z,24.70
2023-01-20T09:47:31.135Z,25.02
2023-01-20T09:50:39.312Z,26.05
2023-01-20T09:53:15.571Z,21.52
2023-01-20T09:55:52.268Z,21.08
2023-01-20T09:58:32.505Z,21.85
2023-01-20T10:01:09.068Z,22.75
2023-01-20T10:03:43.174Z,21.45
2023-01-20T10:09:04.226Z,21.10
2023-01-20T10:11:37.871Z,22.08
2023-01-20T10:14:20.833Z,18.38
2023-01-20T10:16:56.720Z,17.95
2023-01-20T10:19:31.218Z,18.35
2023-01-20T10:22:07.980Z,26.42
2023-01-20T10:24:41.633Z,19.00
2023-01-20T10:27:09.754Z,21.05
2023-01-20T10:29:44.987Z,22.17
2023-01-20T10:32:23.588Z,20.42
2023-01-20T10:34:56.770Z,21.83
2023-01-20T10:37:25.511Z,21.87
2023-01-20T10:39:58.160Z,26.30
2023-01-20T10:42:28.469Z,31.25
2023-01-20T10:45:00.161Z,23.98
2023-01-20T10:47:42.320Z,23.05
2023-01-20T10:50:58.571Z,25.50
2023-01-20T10:53:40.268Z,20.90
2023-01-20T10:56:23.871Z,25.42
2023-01-20T10:58:51.945Z,28.48
2023-01-20T11:01:21.946Z,23.42
2023-01-20T11:03:50.740Z,25.38
2023-01-20T11:06:21.694Z,26.83
2023-01-20T11:08:50.280Z,31.20
2023-01-20T11:11:21.846Z,24.63
2023-01-20T11:13:51.591Z,27.70
2023-01-20T11:16:25.178Z,24.40
2023-01-20T11:18:59.472Z,23.45
2023-01-20T11:21:30.374Z,23.40
2023-01-20T11:23:59.724Z,21.00
2023-01-20T11:26:31.604Z,20.35
2023-01-20T11:29:01.839Z,21.13
2023-01-20T11:31:41.222Z,19.08
2023-01-20T11:34:25.563Z,20.33
2023-01-20T11:37:18.062Z,20.63
2023-01-20T11:40:00.207Z,18.73
2023-01-20T11:42:31.044Z,18.70
2023-01-20T11:45:15.546Z,19.95
2023-01-20T11:48:01.735Z,20.85
2023-01-20T11:50:34.140Z,18.75
2023-01-20T11:53:22.010Z,17.58
2023-01-20T11:55:53.127Z,19.10
2023-01-20T11:58:24.327Z,20.27
2023-01-20T12:00:59.814Z,16.67
2023-01-20T12:03:57.432Z,18.52
2023-01-20T12:06:29.036Z,19.52
2023-01-20T12:09:02.211Z,21.92
2023-01-20T12:11:33.514Z,23.20
2023-01-20T12:14:23.123Z,17.00
2023-01-20T12:17:04.292Z,17.77
2023-01-20T12:19:43.282Z,19.15
2023-01-20T12:22:15.414Z,18.15
2023-01-20T12:25:11.563Z,18.85
2023-01-20T12:27:48.458Z,21.98
2023-01-20T12:30:40.116Z,16.85
2023-01-20T12:33:18.548Z,17.13
2023-01-20T12:36:19.930Z,18.65
2023-01-20T12:39:03.180Z,17.95
2023-01-20T12:41:44.487Z,19.67
2023-01-20T12:44:21.009Z,22.98
2023-01-20T12:46:56.712Z,21.00
2023-01-20T12:49:41.425Z,19.00
2023-01-20T12:52:22.748Z,17.70
2023-01-20T12:55:10.094Z,19.83
2023-01-20T12:57:57.245Z,17.25
2023-01-20T13:00:37.758Z,21.20
2023-01-20T13:03:38.142Z,19.25
2023-01-20T13:06:25.347Z,17.00
2023-01-20T13:09:02.405Z,16.02
2023-01-20T13:11:47.806Z,16.77
2023-01-20T13:14:21.882Z,15.05
2023-01-20T13:16:56.819Z,16.80
2023-01-20T13:19:30.616Z,17.00
2023-01-20T13:22:08.194Z,17.98
2023-01-20T13:24:41.405Z,14.93
2023-01-20T13:27:11.444Z,14.65
2023-01-20T13:29:52.950Z,16.15
2023-01-20T13:32:29.435Z,16.42
2023-01-20T13:34:58.647Z,17.05
2023-01-20T13:37:38.366Z,12.50
2023-01-20T13:40:49.408Z,11.77
2023-01-20T13:43:46.845Z,12.30
2023-01-20T13:46:55.271Z,13.13
2023-01-20T13:49:45.405Z,13.80
2023-01-20T13:52:13.792Z,13.50
2023-01-20T13:54:47.587Z,11.82
2023-01-20T13:57:47.328Z,12.13
2023-01-20T14:00:17.422Z,14.57
2023-01-20T14:02:47.815Z,13.52
2023-01-20T14:05:32.131Z,12.77
2023-01-20T14:08:00.884Z,13.38
2023-01-20T14:10:29.381Z,14.63
2023-01-20T14:12:58.921Z,14.40
2023-01-20T14:15:32.259Z,13.07
2023-01-20T14:18:01.533Z,15.07
2023-01-20T14:20:31.141Z,16.15
2023-01-20T14:23:24.411Z,16.80
2023-01-20T14:25:59.297Z,16.42
2023-01-20T14:28:28.941Z,14.70
2023-01-20T14:31:18.338Z,14.90
2023-01-20T14:33:49.245Z,14.80
2023-01-20T14:36:19.636Z,16.33
2023-01-20T14:38:58.187Z,19.70
2023-01-20T14:41:29.880Z,19.40
2023-01-20T14:43:59.784Z,19.55
2023-01-20T14:46:29.499Z,17.77
2023-01-20T14:48:59.242Z,18.13
2023-01-20T14:51:27.906Z,18.40
2023-01-20T14:54:33.367Z,19.63
2023-01-20T14:57:12.531Z,29.73
2023-01-20T14:59:42.057Z,16.25
2023-01-20T15:02:18.880Z,14.82
2023-01-20T15:04:47.153Z,20.48
2023-01-20T15:07:20.630Z,16.48
2023-01-20T15:09:56.408Z,18.40
2023-01-20T15:12:36.666Z,15.57
2023-01-20T15:15:25.648Z,16.33
2023-01-20T15:18:17.673Z,16.20
2023-01-20T15:20:48.771Z,14.90
2023-01-20T15:23:21.115Z,14.32
2023-01-20T15:25:49.818Z,16.48
2023-01-20T15:28:30.004Z,13.00
2023-01-20T15:31:00.318Z,14.30
2023-01-20T15:33:28.762Z,14.82
2023-01-20T15:35:59.591Z,16.05
2023-01-20T15:38:31.485Z,12.95
2023-01-20T15:40:59.647Z,19.33
2023-01-20T15:43:27.884Z,17.15
2023-01-20T15:45:56.139Z,19.40
2023-01-20T15:48:25.783Z,12.30
2023-01-20T15:50:54.176Z,14.25
2023-01-20T15:53:22.304Z,12.95
2023-01-20T15:55:52.211Z,12.70
2023-01-20T15:58:27.355Z,13.30
2023-01-20T16:00:56.667Z,13.82
2023-01-20T16:03:27.006Z,12.60
2023-01-20T16:05:57.087Z,15.43
2023-01-20T16:08:30.589Z,13.02
2023-01-20T16:10:58.959Z,15.25
2023-01-20T16:13:27.455Z,16.10
2023-01-20T16:15:56.276Z,14.32
2023-01-20T16:18:25.859Z,15.90
2023-01-20T16:20:54.041Z,16.55
2023-01-20T16:23:22.243Z,17.48
2023-01-20T16:25:50.604Z,15.93
2023-01-20T16:28:21.332Z,18.38
2023-01-20T16:30:50.149Z,23.05
2023-01-20T16:33:20.986Z,21.52
2023-01-20T16:35:52.134Z,25.40
2023-01-20T16:38:21.923Z,23.02
2023-01-20T16:40:52.433Z,18.27
2023-01-20T16:43:22.038Z,20.10
2023-01-20T16:45:54.287Z,22.63
2023-01-20T16:48:24.126Z,20.50
2023-01-20T16:50:54.258Z,20.52
2023-01-20T16:53:22.466Z,22.15
2023-01-20T16:55:50.846Z,21.70
2023-01-20T16:58:28.346Z,20.35
2023-01-20T17:00:56.748Z,22.92
2023-01-20T17:03:27.272Z,21.40
2023-01-20T17:05:57.430Z,22.08
2023-01-20T17:08:25.547Z,23.67
2023-01-20T17:10:53.753Z,23.75
2023-01-20T17:13:21.912Z,25.00
2023-01-20T17:15:50.205Z,24.00
2023-01-20T17:18:18.275Z,21.95
2023-01-20T17:20:46.671Z,24.58
2023-01-20T17:23:16.092Z,24.05
2023-01-20T17:25:44.286Z,23.95
2023-01-20T17:28:12.407Z,25.92
2023-01-20T17:30:40.590Z,25.92
2023-01-20T17:33:08.856Z,23.48
2023-01-20T17:35:37.180Z,26.67
2023-01-20T17:38:05.740Z,25.70
2023-01-20T17:40:35.277Z,25.63
2023-01-20T17:43:04.720Z,27.67
2023-01-20T17:45:33.295Z,30.17
2023-01-20T17:48:03.111Z,30.50
2023-01-20T17:50:32.678Z,28.52
2023-01-20T17:53:01.629Z,28.38
2023-01-20T17:55:32.523Z,26.17
2023-01-20T17:58:02.248Z,26.92
2023-01-20T18:00:30.396Z,30.52
2023-01-20T18:02:58.493Z,29.42
2023-01-20T18:05:28.578Z,30.42
2023-01-20T18:07:56.678Z,28.90
2023-01-20T18:10:24.917Z,29.08
2023-01-20T18:12:53.165Z,39.28
2023-01-20T18:15:22.785Z,36.15
2023-01-20T18:17:50.948Z,29.90
2023-01-20T18:20:19.405Z,42.60
2023-01-20T18:22:51.404Z,64.88
2023-01-20T18:25:19.541Z,55.22
2023-01-20T18:27:47.639Z,40.28
2023-01-20T18:30:16.707Z,36.65
2023-01-20T18:33:05.075Z,32.05
2023-01-20T18:35:33.287Z,35.10
2023-01-20T18:38:02.322Z,34.42
2023-01-20T18:40:30.478Z,35.78
2023-01-20T18:42:58.692Z,35.80
2023-01-20T18:45:29.012Z,35.15
2023-01-20T18:47:57.128Z,37.70
2023-01-20T18:50:26.682Z,37.90
2023-01-20T18:52:56.119Z,35.85
2023-01-20T18:55:24.237Z,43.45
2023-01-20T18:57:52.396Z,39.50
2023-01-20T19:00:20.980Z,38.58
2023-01-20T19:02:51.123Z,41.38
2023-01-20T19:05:19.412Z,39.70
2023-01-20T19:07:51.245Z,42.38
2023-01-20T19:10:19.825Z,40.65
2023-01-20T19:12:48.549Z,41.40
2023-01-20T19:15:16.708Z,38.13
2023-01-20T19:17:45.030Z,37.70
2023-01-20T19:20:13.394Z,38.42
2023-01-20T19:22:41.599Z,44.15
2023-01-20T19:25:12.035Z,37.95
2023-01-20T19:27:40.275Z,36.88
2023-01-20T19:30:10.221Z,39.80
2023-01-20T19:32:41.496Z,39.88
2023-01-20T19:35:10.653Z,38.50
2023-01-20T19:37:38.741Z,44.15
2023-01-20T19:40:07.433Z,42.55
2023-01-20T19:42:37.066Z,41.03
2023-01-20T19:45:05.945Z,40.28
2023-01-20T19:47:35.395Z,42.78
2023-01-20T19:50:03.455Z,39.45
2023-01-20T19:52:31.624Z,48.85
2023-01-20T19:54:59.803Z,43.55
2023-01-20T19:57:28.121Z,40.60
2023-01-20T19:59:57.542Z,40.17
2023-01-20T20:02:27.660Z,44.13
2023-01-20T20:04:55.816Z,46.00
2023-01-20T20:07:23.936Z,43.38
2023-01-20T20:09:52.194Z,47.25
2023-01-20T20:12:20.553Z,41.78
2023-01-20T20:14:48.684Z,46.83
2023-01-20T20:17:18.381Z,45.17
2023-01-20T20:19:46.525Z,48.55
2023-01-20T20:22:14.675Z,49.45
2023-01-20T20:24:43.074Z,42.72
2023-01-20T20:27:11.307Z,44.42
2023-01-20T20:29:39.528Z,46.17
2023-01-20T20:32:07.828Z,44.80
2023-01-20T20:34:37.513Z,40.47
2023-01-20T20:37:05.691Z,38.83
2023-01-20T20:39:33.734Z,40.80
2023-01-20T20:42:01.876Z,44.03
2023-01-20T20:44:30.004Z,46.95
2023-01-20T20:46:58.313Z,45.63
2023-01-20T20:49:26.379Z,45.72
2023-01-20T20:51:56.401Z,44.40
2023-01-20T20:54:30.771Z,40.13
2023-01-20T20:56:58.879Z,43.97
2023-01-20T20:59:27.066Z,46.90
2023-01-20T21:01:55.505Z,43.47
2023-01-20T21:04:23.785Z,43.63
2023-01-20T21:06:52.118Z,45.70
2023-01-20T21:09:21.673Z,46.00
2023-01-20T21:11:49.996Z,43.95
2023-01-20T21:14:21.193Z,47.95
2023-01-20T21:16:49.392Z,44.63
2023-01-20T21:19:17.511Z,46.45
2023-01-20T21:21:45.847Z,39.88
2023-01-20T21:24:14.604Z,48.33
2023-01-20T21:26:44.879Z,48.20
2023-01-20T21:29:13.509Z,41.95
2023-01-20T21:31:41.924Z,46.15
2023-01-20T21:34:14.399Z,43.15
2023-01-20T21:36:43.280Z,38.85
2023-01-20T21:39:13.858Z,43.60
2023-01-20T21:41:43.574Z,41.85
2023-01-20T21:44:32.362Z,42.17
2023-01-20T21:47:01.739Z,43.17
2023-01-20T21:49:47.498Z,44.38
2023-01-20T21:52:34.949Z,45.30
2023-01-20T21:55:03.413Z,40.10
2023-01-20T21:57:33.583Z,38.53
2023-01-20T22:00:03.127Z,47.03
2023-01-20T22:02:39.876Z,43.47
2023-01-20T22:05:08.937Z,41.63
2023-01-20T22:07:37.077Z,40.88
2023-01-20T22:10:06.302Z,42.38
2023-01-20T22:12:35.944Z,40.70
2023-01-20T22:15:05.019Z,40.80
2023-01-20T22:17:33.151Z,40.55
2023-01-20T22:20:01.437Z,40.08
2023-01-20T22:22:29.515Z,45.65
2023-01-20T22:24:57.815Z,42.17
2023-01-20T22:27:25.964Z,41.17
2023-01-20T22:29:55.465Z,41.15
2023-01-20T22:32:23.807Z,41.75
2023-01-20T22:34:52.041Z,41.28
2023-01-20T22:37:20.488Z,43.72
2023-01-20T22:39:48.986Z,40.35
2023-01-20T22:42:17.068Z,41.40
2023-01-20T22:44:45.261Z,44.10
2023-01-20T22:47:14.695Z,44.20
2023-01-20T22:49:43.075Z,41.45
2023-01-20T22:52:11.162Z,41.75
2023-01-20T22:54:39.205Z,41.45
2023-01-20T22:57:07.420Z,41.35
2023-01-20T22:59:35.815Z,44.17
2023-01-20T23:02:04.163Z,44.10
2023-01-20T23:04:33.649Z,46.05
2023-01-20T23:07:01.825Z,45.58
2023-01-20T23:09:30.219Z,42.22
2023-01-20T23:11:58.439Z,44.30
2023-01-20T23:14:57.832Z,50.13
2023-01-20T23:17:26.302Z,43.33
2023-01-20T23:19:56.375Z,41.85
2023-01-20T23:22:25.584Z,43.13
2023-01-20T23:24:53.848Z,46.25
2023-01-20T23:27:22.047Z,46.25
2023-01-20T23:29:50.349Z,42.85
2023-01-20T23:32:20.651Z,45.47
2023-01-20T23:34:48.927Z,47.95
2023-01-20T23:37:18.668Z,43.75
2023-01-20T23:39:46.992Z,47.40
2023-01-20T23:42:15.805Z,44.10
2023-01-20T23:44:44.829Z,41.53
2023-01-20T23:47:12.875Z,42.55
2023-01-20T23:49:41.864Z,44.35
2023-01-20T23:52:10.114Z,42.67
2023-01-20T23:54:39.665Z,49.38
2023-01-20T23:57:08.097Z,48.00
2023-01-20T23:59:37.864Z,45.20
